sensor_id;sensor_type;location;lat;lon;timestamp;temperature;humidity
11908;DHT22;6014;47.690;9.130;2023-03-15T00:01:23;3.60;99.90
11908;DHT22;6014;47.690;9.130;2023-03-15T00:03:53;3.30;99.90
11908;DHT22;6014;47.690;9.130;2023-03-15T00:06:21;3.30;99.90
11908;DHT22;6014;47.690;9.130;2023-03-15T00:08:50;3.30;99.90
11908;DHT22;6014;47.690;9.130;2023-03-15T00:11:19;3.40;99.90
11908;DHT22;6014;47.690;9.130;2023-03-15T00:13:47;3.50;99.90
11908;DHT22;6014;47.690;9.130;2023-03-15T00:16:15;3.50;99.90
11908;DHT22;6014;47.690;9.130;2023-03-15T00:18:44;3.60;99.90
11908;DHT22;6014;47.690;9.130;2023-03-15T00:21:13;3.60;99.90
11908;DHT22;6014;47.690;9.130;2023-03-15T00:23:41;3.60;99.90
11908;DHT22;6014;47.690;9.130;2023-03-15T00:26:10;3.60;99.90
11908;DHT22;6014;47.690;9.130;2023-03-15T00:28:39;3.70;99.90
11908;DHT22;6014;47.690;9.130;2023-03-15T00:31:12;3.70;99.90
11908;DHT22;6014;47.690;9.130;2023-03-15T00:33:41;3.70;99.90
11908;DHT22;6014;47.690;9.130;2023-03-15T00:36:10;3.70;99.90
11908;DHT22;6014;47.690;9.130;2023-03-15T00:38:40;3.80;99.90
11908;DHT22;6014;47.690;9.130;2023-03-15T00:41:11;3.80;99.90
11908;DHT22;6014;47.690;9.130;2023-03-15T00:43:41;3.90;99.90
11908;DHT22;6014;47.690;9.130;2023-03-15T00:46:09;3.90;99.90
11908;DHT22;6014;47.690;9.130;2023-03-15T00:48:37;3.90;99.90
11908;DHT22;6014;47.690;9.130;2023-03-15T00:51:07;3.90;99.90
11908;DHT22;6014;47.690;9.130;2023-03-15T00:53:37;3.90;99.90
11908;DHT22;6014;47.690;9.130;2023-03-15T00:56:06;3.90;99.90
11908;DHT22;6014;47.690;9.130;2023-03-15T00:58:35;3.90;99.90
11908;DHT22;6014;47.690;9.130;2023-03-15T01:01:12;3.90;99.90
11908;DHT22;6014;47.690;9.130;2023-03-15T01:03:41;3.90;99.90
11908;DHT22;6014;47.690;9.130;2023-03-15T01:06:11;3.80;99.90
11908;DHT22;6014;47.690;9.130;2023-03-15T01:08:39;3.90;99.90
11908;DHT22;6014;47.690;9.130;2023-03-15T01:11:10;3.90;99.90
11908;DHT22;6014;47.690;9.130;2023-03-15T01:13:38;3.90;99.90
11908;DHT22;6014;47.690;9.130;2023-03-15T01:16:09;3.90;99.90
11908;DHT22;6014;47.690;9.130;2023-03-15T01:18:39;3.90;99.90
11908;DHT22;6014;47.690;9.130;2023-03-15T01:21:08;3.70;99.90
11908;DHT22;6014;47.690;9.130;2023-03-15T01:23:37;3.80;99.90
11908;DHT22;6014;47.690;9.130;2023-03-15T01:26:06;3.80;99.90
11908;DHT22;6014;47.690;9.130;2023-03-15T01:28:34;3.80;99.90
11908;DHT22;6014;47.690;9.130;2023-03-15T01:31:03;3.80;99.90
11908;DHT22;6014;47.690;9.130;2023-03-15T01:33:31;3.90;99.90
11908;DHT22;6014;47.690;9.130;2023-03-15T01:36:01;3.90;99.90
11908;DHT22;6014;47.690;9.130;2023-03-15T01:38:30;3.90;99.90
11908;DHT22;6014;47.690;9.130;2023-03-15T01:40:58;4.00;99.90
11908;DHT22;6014;47.690;9.130;2023-03-15T01:43:27;3.90;99.90
11908;DHT22;6014;47.690;9.130;2023-03-15T01:46:23;4.00;99.90
11908;DHT22;6014;47.690;9.130;2023-03-15T01:48:56;3.80;99.90
11908;DHT22;6014;47.690;9.130;2023-03-15T01:51:33;3.70;99.90
11908;DHT22;6014;47.690;9.130;2023-03-15T01:54:05;3.40;99.90
11908;DHT22;6014;47.690;9.130;2023-03-15T01:56:37;3.40;99.90
11908;DHT22;6014;47.690;9.130;2023-03-15T01:59:10;3.30;99.90
11908;DHT22;6014;47.690;9.130;2023-03-15T02:01:42;3.30;99.90
11908;DHT22;6014;47.690;9.130;2023-03-15T02:04:15;3.20;99.90
11908;DHT22;6014;47.690;9.130;2023-03-15T02:06:47;3.20;99.90
11908;DHT22;6014;47.690;9.130;2023-03-15T02:09:17;3.10;99.90
11908;DHT22;6014;47.690;9.130;2023-03-15T02:11:47;3.10;99.90
11908;DHT22;6014;47.690;9.130;2023-03-15T02:14:16;3.10;99.90
11908;DHT22;6014;47.690;9.130;2023-03-15T02:16:44;3.20;99.90
11908;DHT22;6014;47.690;9.130;2023-03-15T02:19:28;3.10;99.90
11908;DHT22;6014;47.690;9.130;2023-03-15T02:22:05;3.00;99.90
11908;DHT22;6014;47.690;9.130;2023-03-15T02:24:45;3.00;99.90
11908;DHT22;6014;47.690;9.130;2023-03-15T02:27:22;2.90;99.90
11908;DHT22;6014;47.690;9.130;2023-03-15T02:29:53;2.80;99.90
11908;DHT22;6014;47.690;9.130;2023-03-15T02:32:21;2.70;99.90
11908;DHT22;6014;47.690;9.130;2023-03-15T02:34:49;2.60;99.90
11908;DHT22;6014;47.690;9.130;2023-03-15T02:37:17;2.60;99.90
11908;DHT22;6014;47.690;9.130;2023-03-15T02:39:45;2.50;99.90
11908;DHT22;6014;47.690;9.130;2023-03-15T02:42:14;2.50;99.90
11908;DHT22;6014;47.690;9.130;2023-03-15T02:44:45;2.40;99.90
11908;DHT22;6014;47.690;9.130;2023-03-15T02:47:16;2.30;99.90
11908;DHT22;6014;47.690;9.130;2023-03-15T02:49:50;2.20;99.90
11908;DHT22;6014;47.690;9.130;2023-03-15T02:52:18;2.00;99.90
11908;DHT22;6014;47.690;9.130;2023-03-15T02:54:46;2.10;99.90
11908;DHT22;6014;47.690;9.130;2023-03-15T02:57:16;2.10;99.90
11908;DHT22;6014;47.690;9.130;2023-03-15T02:59:46;2.00;99.90
11908;DHT22;6014;47.690;9.130;2023-03-15T03:02:17;2.00;99.90
11908;DHT22;6014;47.690;9.130;2023-03-15T03:04:45;1.90;99.90
11908;DHT22;6014;47.690;9.130;2023-03-15T03:07:13;1.90;99.90
11908;DHT22;6014;47.690;9.130;2023-03-15T03:09:41;1.80;99.90
11908;DHT22;6014;47.690;9.130;2023-03-15T03:12:10;1.80;99.90
11908;DHT22;6014;47.690;9.130;2023-03-15T03:14:38;1.70;99.90
11908;DHT22;6014;47.690;9.130;2023-03-15T03:17:10;1.60;99.90
11908;DHT22;6014;47.690;9.130;2023-03-15T03:19:38;1.50;99.90
11908;DHT22;6014;47.690;9.130;2023-03-15T03:22:06;1.40;99.90
11908;DHT22;6014;47.690;9.130;2023-03-15T03:24:34;1.30;99.90
11908;DHT22;6014;47.690;9.130;2023-03-15T03:27:03;1.20;99.90
11908;DHT22;6014;47.690;9.130;2023-03-15T03:29:31;1.10;99.90
11908;DHT22;6014;47.690;9.130;2023-03-15T03:31:59;1.10;99.90
11908;DHT22;6014;47.690;9.130;2023-03-15T03:34:28;1.00;99.90
11908;DHT22;6014;47.690;9.130;2023-03-15T03:37:15;0.90;99.90
11908;DHT22;6014;47.690;9.130;2023-03-15T03:39:52;0.80;99.90
11908;DHT22;6014;47.690;9.130;2023-03-15T03:42:20;0.70;99.90
11908;DHT22;6014;47.690;9.130;2023-03-15T03:44:48;0.70;99.90
11908;DHT22;6014;47.690;9.130;2023-03-15T03:47:17;0.70;99.90
11908;DHT22;6014;47.690;9.130;2023-03-15T03:49:46;0.60;99.90
11908;DHT22;6014;47.690;9.130;2023-03-15T03:52:14;0.50;99.90
11908;DHT22;6014;47.690;9.130;2023-03-15T03:54:42;0.40;99.90
11908;DHT22;6014;47.690;9.130;2023-03-15T03:57:10;0.30;99.90
11908;DHT22;6014;47.690;9.130;2023-03-15T03:59:38;0.40;99.90
11908;DHT22;6014;47.690;9.130;2023-03-15T04:02:06;0.30;99.90
11908;DHT22;6014;47.690;9.130;2023-03-15T04:04:34;0.20;99.90
11908;DHT22;6014;47.690;9.130;2023-03-15T04:07:04;0.10;99.90
11908;DHT22;6014;47.690;9.130;2023-03-15T04:09:32;0.10;99.90
11908;DHT22;6014;47.690;9.130;2023-03-15T04:12:03;0.00;99.90
11908;DHT22;6014;47.690;9.130;2023-03-15T04:14:32;-0.10;99.90
11908;DHT22;6014;47.690;9.130;2023-03-15T04:17:00;-0.10;99.90
11908;DHT22;6014;47.690;9.130;2023-03-15T04:19:29;-0.10;99.90
11908;DHT22;6014;47.690;9.130;2023-03-15T04:21:57;-0.10;99.90
11908;DHT22;6014;47.690;9.130;2023-03-15T04:24:26;-0.10;99.90
11908;DHT22;6014;47.690;9.130;2023-03-15T04:26:54;-0.10;99.90
11908;DHT22;6014;47.690;9.130;2023-03-15T04:29:23;-0.10;99.90
11908;DHT22;6014;47.690;9.130;2023-03-15T04:31:51;-0.10;99.90
11908;DHT22;6014;47.690;9.130;2023-03-15T04:34:19;-0.10;99.90
11908;DHT22;6014;47.690;9.130;2023-03-15T04:36:47;-0.10;99.90
11908;DHT22;6014;47.690;9.130;2023-03-15T04:39:26;-0.20;99.90
11908;DHT22;6014;47.690;9.130;2023-03-15T04:41:54;-0.20;99.90
11908;DHT22;6014;47.690;9.130;2023-03-15T04:44:22;-0.30;99.90
11908;DHT22;6014;47.690;9.130;2023-03-15T04:46:52;-0.10;99.90
11908;DHT22;6014;47.690;9.130;2023-03-15T04:49:21;-0.30;99.90
11908;DHT22;6014;47.690;9.130;2023-03-15T04:51:49;-0.40;99.90
11908;DHT22;6014;47.690;9.130;2023-03-15T04:54:17;-0.50;99.90
11908;DHT22;6014;47.690;9.130;2023-03-15T04:56:51;-0.40;99.90
11908;DHT22;6014;47.690;9.130;2023-03-15T04:59:18;-0.60;99.90
11908;DHT22;6014;47.690;9.130;2023-03-15T05:01:47;-0.60;99.90
11908;DHT22;6014;47.690;9.130;2023-03-15T05:04:15;-0.40;99.90
11908;DHT22;6014;47.690;9.130;2023-03-15T05:06:43;-0.40;99.90
11908;DHT22;6014;47.690;9.130;2023-03-15T05:09:11;-0.40;99.90
11908;DHT22;6014;47.690;9.130;2023-03-15T05:11:44;-0.50;99.90
11908;DHT22;6014;47.690;9.130;2023-03-15T05:14:14;-0.40;99.90
11908;DHT22;6014;47.690;9.130;2023-03-15T05:16:42;-0.40;99.90
11908;DHT22;6014;47.690;9.130;2023-03-15T05:19:10;-0.50;99.90
11908;DHT22;6014;47.690;9.130;2023-03-15T05:21:38;-0.50;99.90
11908;DHT22;6014;47.690;9.130;2023-03-15T05:24:06;-0.40;99.90
11908;DHT22;6014;47.690;9.130;2023-03-15T05:26:34;-0.40;99.90
11908;DHT22;6014;47.690;9.130;2023-03-15T05:29:02;-0.40;99.90
11908;DHT22;6014;47.690;9.130;2023-03-15T05:31:31;-0.40;99.90
11908;DHT22;6014;47.690;9.130;2023-03-15T05:34:02;-0.40;99.90
11908;DHT22;6014;47.690;9.130;2023-03-15T05:36:31;-0.40;99.90
11908;DHT22;6014;47.690;9.130;2023-03-15T05:38:59;-0.50;99.90
11908;DHT22;6014;47.690;9.130;2023-03-15T05:41:31;-0.50;99.90
11908;DHT22;6014;47.690;9.130;2023-03-15T05:43:59;-0.50;99.90
11908;DHT22;6014;47.690;9.130;2023-03-15T05:46:27;-0.50;99.90
11908;DHT22;6014;47.690;9.130;2023-03-15T05:48:59;-0.50;99.90
11908;DHT22;6014;47.690;9.130;2023-03-15T05:51:26;-0.50;99.90
11908;DHT22;6014;47.690;9.130;2023-03-15T05:53:54;-0.60;99.90
11908;DHT22;6014;47.690;9.130;2023-03-15T05:56:23;-0.70;99.90
11908;DHT22;6014;47.690;9.130;2023-03-15T05:58:51;-0.70;99.90
11908;DHT22;6014;47.690;9.130;2023-03-15T06:01:19;-0.70;99.90
11908;DHT22;6014;47.690;9.130;2023-03-15T06:04:02;-0.70;99.90
11908;DHT22;6014;47.690;9.130;2023-03-15T06:06:30;-0.70;99.90
11908;DHT22;6014;47.690;9.130;2023-03-15T06:08:59;-0.60;99.90
11908;DHT22;6014;47.690;9.130;2023-03-15T06:11:27;-0.60;99.90
11908;DHT22;6014;47.690;9.130;2023-03-15T06:13:55;-0.60;99.90
11908;DHT22;6014;47.690;9.130;2023-03-15T06:16:23;-0.60;99.90
11908;DHT22;6014;47.690;9.130;2023-03-15T06:18:51;-0.50;99.90
11908;DHT22;6014;47.690;9.130;2023-03-15T06:21:21;-0.50;99.90
11908;DHT22;6014;47.690;9.130;2023-03-15T06:23:49;-0.50;99.90
11908;DHT22;6014;47.690;9.130;2023-03-15T06:26:17;-0.40;99.90
11908;DHT22;6014;47.690;9.130;2023-03-15T06:28:45;-0.30;99.90
11908;DHT22;6014;47.690;9.130;2023-03-15T06:31:14;-0.20;99.90
11908;DHT22;6014;47.690;9.130;2023-03-15T06:33:42;-0.10;99.90
11908;DHT22;6014;47.690;9.130;2023-03-15T06:36:10;-0.10;99.90
11908;DHT22;6014;47.690;9.130;2023-03-15T06:38:41;0.00;99.90
11908;DHT22;6014;47.690;9.130;2023-03-15T06:41:09;0.10;99.90
11908;DHT22;6014;47.690;9.130;2023-03-15T06:43:38;0.20;99.90
11908;DHT22;6014;47.690;9.130;2023-03-15T06:46:06;0.30;99.90
11908;DHT22;6014;47.690;9.130;2023-03-15T06:48:34;0.40;99.90
11908;DHT22;6014;47.690;9.130;2023-03-15T06:51:02;0.60;99.90
11908;DHT22;6014;47.690;9.130;2023-03-15T06:53:31;0.80;99.90
11908;DHT22;6014;47.690;9.130;2023-03-15T06:56:05;1.20;99.90
11908;DHT22;6014;47.690;9.130;2023-03-15T06:58:33;1.60;99.90
11908;DHT22;6014;47.690;9.130;2023-03-15T07:01:01;2.00;99.90
11908;DHT22;6014;47.690;9.130;2023-03-15T07:03:29;2.30;99.90
11908;DHT22;6014;47.690;9.130;2023-03-15T07:05:57;2.70;99.90
11908;DHT22;6014;47.690;9.130;2023-03-15T07:08:25;3.00;99.90
11908;DHT22;6014;47.690;9.130;2023-03-15T07:10:53;3.40;99.90
11908;DHT22;6014;47.690;9.130;2023-03-15T07:13:22;3.70;99.90
11908;DHT22;6014;47.690;9.130;2023-03-15T07:15:51;3.90;99.90
11908;DHT22;6014;47.690;9.130;2023-03-15T07:18:20;4.30;99.90
11908;DHT22;6014;47.690;9.130;2023-03-15T07:20:55;4.60;99.90
11908;DHT22;6014;47.690;9.130;2023-03-15T07:23:23;4.60;99.90
11908;DHT22;6014;47.690;9.130;2023-03-15T07:25:52;4.80;99.90
11908;DHT22;6014;47.690;9.130;2023-03-15T07:28:25;4.90;99.90
11908;DHT22;6014;47.690;9.130;2023-03-15T07:30:56;5.10;99.90
11908;DHT22;6014;47.690;9.130;2023-03-15T07:33:24;5.10;99.90
11908;DHT22;6014;47.690;9.130;2023-03-15T07:35:53;5.10;99.90
11908;DHT22;6014;47.690;9.130;2023-03-15T07:38:22;5.20;99.90
11908;DHT22;6014;47.690;9.130;2023-03-15T07:40:51;5.40;99.90
11908;DHT22;6014;47.690;9.130;2023-03-15T07:43:19;5.40;99.90
11908;DHT22;6014;47.690;9.130;2023-03-15T07:45:49;5.80;99.90
11908;DHT22;6014;47.690;9.130;2023-03-15T07:48:17;5.90;99.90
11908;DHT22;6014;47.690;9.130;2023-03-15T07:50:45;6.20;99.90
11908;DHT22;6014;47.690;9.130;2023-03-15T07:53:13;6.10;99.90
11908;DHT22;6014;47.690;9.130;2023-03-15T07:55:41;6.30;99.90
11908;DHT22;6014;47.690;9.130;2023-03-15T07:58:10;6.60;99.90
11908;DHT22;6014;47.690;9.130;2023-03-15T08:00:39;7.10;99.90
11908;DHT22;6014;47.690;9.130;2023-03-15T08:03:08;6.80;94.30
11908;DHT22;6014;47.690;9.130;2023-03-15T08:05:36;6.60;90.90
11908;DHT22;6014;47.690;9.130;2023-03-15T08:08:05;6.70;92.90
11908;DHT22;6014;47.690;9.130;2023-03-15T08:10:34;7.00;93.00
11908;DHT22;6014;47.690;9.130;2023-03-15T08:13:02;7.30;92.00
11908;DHT22;6014;47.690;9.130;2023-03-15T08:15:30;7.40;84.30
11908;DHT22;6014;47.690;9.130;2023-03-15T08:17:58;7.30;76.50
11908;DHT22;6014;47.690;9.130;2023-03-15T08:20:27;7.90;78.00
11908;DHT22;6014;47.690;9.130;2023-03-15T08:22:56;8.40;71.80
11908;DHT22;6014;47.690;9.130;2023-03-15T08:25:24;8.40;61.60
11908;DHT22;6014;47.690;9.130;2023-03-15T08:27:52;8.40;62.60
11908;DHT22;6014;47.690;9.130;2023-03-15T08:30:21;8.10;62.10
11908;DHT22;6014;47.690;9.130;2023-03-15T08:32:49;8.30;62.80
11908;DHT22;6014;47.690;9.130;2023-03-15T08:35:20;8.00;58.30
11908;DHT22;6014;47.690;9.130;2023-03-15T08:37:49;8.10;60.40
11908;DHT22;6014;47.690;9.130;2023-03-15T08:40:19;8.40;61.50
11908;DHT22;6014;47.690;9.130;2023-03-15T08:42:51;8.40;64.60
11908;DHT22;6014;47.690;9.130;2023-03-15T08:45:19;8.60;62.70
11908;DHT22;6014;47.690;9.130;2023-03-15T08:47:49;8.70;58.40
11908;DHT22;6014;47.690;9.130;2023-03-15T08:50:21;9.00;54.80
11908;DHT22;6014;47.690;9.130;2023-03-15T08:52:50;8.30;56.70
11908;DHT22;6014;47.690;9.130;2023-03-15T08:55:18;8.50;55.60
11908;DHT22;6014;47.690;9.130;2023-03-15T08:57:46;7.90;60.80
11908;DHT22;6014;47.690;9.130;2023-03-15T09:00:15;8.10;57.60
11908;DHT22;6014;47.690;9.130;2023-03-15T09:02:46;8.50;58.80
11908;DHT22;6014;47.690;9.130;2023-03-15T09:05:16;8.60;58.70
11908;DHT22;6014;47.690;9.130;2023-03-15T09:07:45;8.90;62.10
11908;DHT22;6014;47.690;9.130;2023-03-15T09:10:15;8.90;61.40
11908;DHT22;6014;47.690;9.130;2023-03-15T09:12:46;8.80;60.90
11908;DHT22;6014;47.690;9.130;2023-03-15T09:15:14;8.70;59.90
11908;DHT22;6014;47.690;9.130;2023-03-15T09:17:42;8.20;62.20
11908;DHT22;6014;47.690;9.130;2023-03-15T09:20:12;8.50;62.70
11908;DHT22;6014;47.690;9.130;2023-03-15T09:22:42;8.70;61.60
11908;DHT22;6014;47.690;9.130;2023-03-15T09:25:11;9.50;55.10
11908;DHT22;6014;47.690;9.130;2023-03-15T09:27:40;9.70;58.00
11908;DHT22;6014;47.690;9.130;2023-03-15T09:30:09;8.70;57.60
11908;DHT22;6014;47.690;9.130;2023-03-15T09:32:37;9.10;59.20
11908;DHT22;6014;47.690;9.130;2023-03-15T09:35:07;8.90;58.00
11908;DHT22;6014;47.690;9.130;2023-03-15T09:37:37;8.50;63.10
11908;DHT22;6014;47.690;9.130;2023-03-15T09:40:06;8.50;62.90
11908;DHT22;6014;47.690;9.130;2023-03-15T09:42:47;8.20;69.40
11908;DHT22;6014;47.690;9.130;2023-03-15T09:45:25;8.00;73.20
11908;DHT22;6014;47.690;9.130;2023-03-15T09:47:59;8.20;75.00
11908;DHT22;6014;47.690;9.130;2023-03-15T09:50:33;8.00;73.60
11908;DHT22;6014;47.690;9.130;2023-03-15T09:53:07;8.10;75.10
11908;DHT22;6014;47.690;9.130;2023-03-15T09:55:37;7.90;71.90
11908;DHT22;6014;47.690;9.130;2023-03-15T09:58:11;7.40;78.80
11908;DHT22;6014;47.690;9.130;2023-03-15T10:00:43;6.80;89.70
11908;DHT22;6014;47.690;9.130;2023-03-15T10:03:16;6.60;94.70
11908;DHT22;6014;47.690;9.130;2023-03-15T10:05:48;6.60;96.30
11908;DHT22;6014;47.690;9.130;2023-03-15T10:08:17;6.80;95.50
11908;DHT22;6014;47.690;9.130;2023-03-15T10:10:50;7.40;95.50
11908;DHT22;6014;47.690;9.130;2023-03-15T10:13:31;7.60;89.60
11908;DHT22;6014;47.690;9.130;2023-03-15T10:16:11;7.70;83.80
11908;DHT22;6014;47.690;9.130;2023-03-15T10:18:56;8.00;77.80
11908;DHT22;6014;47.690;9.130;2023-03-15T10:21:36;8.40;82.60
11908;DHT22;6014;47.690;9.130;2023-03-15T10:24:11;8.30;70.60
11908;DHT22;6014;47.690;9.130;2023-03-15T10:26:42;8.50;73.60
11908;DHT22;6014;47.690;9.130;2023-03-15T10:29:19;8.50;68.20
11908;DHT22;6014;47.690;9.130;2023-03-15T10:31:48;8.30;70.70
11908;DHT22;6014;47.690;9.130;2023-03-15T10:34:18;8.20;69.70
11908;DHT22;6014;47.690;9.130;2023-03-15T10:36:48;8.00;68.60
11908;DHT22;6014;47.690;9.130;2023-03-15T10:39:21;7.90;65.50
11908;DHT22;6014;47.690;9.130;2023-03-15T10:41:49;7.70;66.10
11908;DHT22;6014;47.690;9.130;2023-03-15T10:44:20;8.10;71.40
11908;DHT22;6014;47.690;9.130;2023-03-15T10:47:01;8.60;68.30
11908;DHT22;6014;47.690;9.130;2023-03-15T10:49:45;8.20;70.00
11908;DHT22;6014;47.690;9.130;2023-03-15T10:52:33;8.40;64.20
11908;DHT22;6014;47.690;9.130;2023-03-15T10:55:05;8.90;61.40
11908;DHT22;6014;47.690;9.130;2023-03-15T10:57:37;8.50;61.50
11908;DHT22;6014;47.690;9.130;2023-03-15T11:00:21;8.50;57.70
11908;DHT22;6014;47.690;9.130;2023-03-15T11:03:01;8.70;55.00
11908;DHT22;6014;47.690;9.130;2023-03-15T11:05:31;8.20;56.40
11908;DHT22;6014;47.690;9.130;2023-03-15T11:08:10;8.50;57.30
11908;DHT22;6014;47.690;9.130;2023-03-15T11:10:38;8.40;56.00
11908;DHT22;6014;47.690;9.130;2023-03-15T11:13:18;8.60;55.50
11908;DHT22;6014;47.690;9.130;2023-03-15T11:15:55;8.50;55.20
11908;DHT22;6014;47.690;9.130;2023-03-15T11:18:30;8.60;56.00
11908;DHT22;6014;47.690;9.130;2023-03-15T11:21:02;8.70;50.40
11908;DHT22;6014;47.690;9.130;2023-03-15T11:23:34;8.90;50.20
11908;DHT22;6014;47.690;9.130;2023-03-15T11:26:04;9.00;45.80
11908;DHT22;6014;47.690;9.130;2023-03-15T11:28:35;9.10;45.70
11908;DHT22;6014;47.690;9.130;2023-03-15T11:31:05;9.30;46.60
11908;DHT22;6014;47.690;9.130;2023-03-15T11:33:42;9.30;45.60
11908;DHT22;6014;47.690;9.130;2023-03-15T11:36:15;9.30;42.60
11908;DHT22;6014;47.690;9.130;2023-03-15T11:38:44;9.40;39.60
11908;DHT22;6014;47.690;9.130;2023-03-15T11:41:23;9.50;38.00
11908;DHT22;6014;47.690;9.130;2023-03-15T11:44:01;9.20;38.80
11908;DHT22;6014;47.690;9.130;2023-03-15T11:46:38;8.90;40.50
11908;DHT22;6014;47.690;9.130;2023-03-15T11:49:14;9.00;39.40
11908;DHT22;6014;47.690;9.130;2023-03-15T11:51:42;9.30;38.60
11908;DHT22;6014;47.690;9.130;2023-03-15T11:54:12;9.00;38.70
11908;DHT22;6014;47.690;9.130;2023-03-15T11:56:50;8.80;38.10
11908;DHT22;6014;47.690;9.130;2023-03-15T11:59:22;9.00;37.80
11908;DHT22;6014;47.690;9.130;2023-03-15T12:01:55;9.20;36.80
11908;DHT22;6014;47.690;9.130;2023-03-15T12:04:42;9.50;36.80
11908;DHT22;6014;47.690;9.130;2023-03-15T12:10:33;9.40;36.80
11908;DHT22;6014;47.690;9.130;2023-03-15T12:13:17;9.60;37.20
11908;DHT22;6014;47.690;9.130;2023-03-15T12:15:48;9.50;35.70
11908;DHT22;6014;47.690;9.130;2023-03-15T12:18:25;9.40;36.80
11908;DHT22;6014;47.690;9.130;2023-03-15T12:21:10;9.80;35.10
11908;DHT22;6014;47.690;9.130;2023-03-15T12:23:41;9.90;34.20
11908;DHT22;6014;47.690;9.130;2023-03-15T12:26:25;9.80;31.00
11908;DHT22;6014;47.690;9.130;2023-03-15T12:29:04;9.90;31.00
11908;DHT22;6014;47.690;9.130;2023-03-15T12:34:34;10.00;29.40
11908;DHT22;6014;47.690;9.130;2023-03-15T12:37:06;10.20;28.10
11908;DHT22;6014;47.690;9.130;2023-03-15T12:39:46;10.30;28.10
11908;DHT22;6014;47.690;9.130;2023-03-15T12:42:58;10.30;28.20
11908;DHT22;6014;47.690;9.130;2023-03-15T12:45:43;10.30;28.10
11908;DHT22;6014;47.690;9.130;2023-03-15T12:48:19;10.00;27.70
11908;DHT22;6014;47.690;9.130;2023-03-15T12:50:52;10.20;28.00
11908;DHT22;6014;47.690;9.130;2023-03-15T12:53:39;10.20;27.20
11908;DHT22;6014;47.690;9.130;2023-03-15T12:56:39;10.20;27.60
11908;DHT22;6014;47.690;9.130;2023-03-15T12:59:28;10.50;28.00
11908;DHT22;6014;47.690;9.130;2023-03-15T13:01:58;10.70;31.10
11908;DHT22;6014;47.690;9.130;2023-03-15T13:04:27;10.70;30.00
11908;DHT22;6014;47.690;9.130;2023-03-15T13:07:13;10.40;27.60
11908;DHT22;6014;47.690;9.130;2023-03-15T13:10:15;10.30;27.70
11908;DHT22;6014;47.690;9.130;2023-03-15T13:12:51;10.60;25.50
11908;DHT22;6014;47.690;9.130;2023-03-15T13:15:24;10.70;26.00
11908;DHT22;6014;47.690;9.130;2023-03-15T13:17:56;10.70;25.80
11908;DHT22;6014;47.690;9.130;2023-03-15T13:20:37;10.50;26.10
11908;DHT22;6014;47.690;9.130;2023-03-15T13:23:17;10.50;27.00
11908;DHT22;6014;47.690;9.130;2023-03-15T13:25:53;10.60;27.10
11908;DHT22;6014;47.690;9.130;2023-03-15T13:28:30;10.90;25.90
11908;DHT22;6014;47.690;9.130;2023-03-15T13:31:10;10.70;26.20
11908;DHT22;6014;47.690;9.130;2023-03-15T13:33:40;11.00;26.70
11908;DHT22;6014;47.690;9.130;2023-03-15T13:36:42;10.90;24.10
11908;DHT22;6014;47.690;9.130;2023-03-15T13:39:19;10.80;25.80
11908;DHT22;6014;47.690;9.130;2023-03-15T13:41:55;11.10;25.40
11908;DHT22;6014;47.690;9.130;2023-03-15T13:44:23;10.80;24.30
11908;DHT22;6014;47.690;9.130;2023-03-15T13:46:52;10.60;24.40
11908;DHT22;6014;47.690;9.130;2023-03-15T13:49:21;11.20;25.80
11908;DHT22;6014;47.690;9.130;2023-03-15T13:51:51;11.10;23.60
11908;DHT22;6014;47.690;9.130;2023-03-15T13:54:24;11.20;24.00
11908;DHT22;6014;47.690;9.130;2023-03-15T13:56:59;11.00;23.70
11908;DHT22;6014;47.690;9.130;2023-03-15T13:59:33;11.00;24.90
11908;DHT22;6014;47.690;9.130;2023-03-15T14:02:03;11.10;25.90
11908;DHT22;6014;47.690;9.130;2023-03-15T14:04:35;10.80;25.50
11908;DHT22;6014;47.690;9.130;2023-03-15T14:07:20;10.90;24.50
11908;DHT22;6014;47.690;9.130;2023-03-15T14:12:44;10.80;24.70
11908;DHT22;6014;47.690;9.130;2023-03-15T14:15:14;10.90;23.70
11908;DHT22;6014;47.690;9.130;2023-03-15T14:17:52;10.80;23.50
11908;DHT22;6014;47.690;9.130;2023-03-15T14:20:55;11.10;24.80
11908;DHT22;6014;47.690;9.130;2023-03-15T14:23:25;11.10;24.90
11908;DHT22;6014;47.690;9.130;2023-03-15T14:25:55;11.10;24.70
11908;DHT22;6014;47.690;9.130;2023-03-15T14:28:31;11.00;22.50
11908;DHT22;6014;47.690;9.130;2023-03-15T14:31:00;11.00;22.40
11908;DHT22;6014;47.690;9.130;2023-03-15T14:33:35;11.00;21.70
11908;DHT22;6014;47.690;9.130;2023-03-15T14:36:06;11.00;22.40
11908;DHT22;6014;47.690;9.130;2023-03-15T14:38:37;10.90;23.00
11908;DHT22;6014;47.690;9.130;2023-03-15T14:41:16;11.20;23.70
11908;DHT22;6014;47.690;9.130;2023-03-15T14:43:47;10.90;23.70
11908;DHT22;6014;47.690;9.130;2023-03-15T14:46:18;10.80;24.10
11908;DHT22;6014;47.690;9.130;2023-03-15T14:48:48;11.10;23.40
11908;DHT22;6014;47.690;9.130;2023-03-15T14:51:18;11.00;22.50
11908;DHT22;6014;47.690;9.130;2023-03-15T14:53:51;10.90;23.30
11908;DHT22;6014;47.690;9.130;2023-03-15T14:56:20;10.20;22.60
11908;DHT22;6014;47.690;9.130;2023-03-15T14:58:53;10.00;23.90
11908;DHT22;6014;47.690;9.130;2023-03-15T15:01:24;9.90;25.20
11908;DHT22;6014;47.690;9.130;2023-03-15T15:03:55;9.90;25.90
11908;DHT22;6014;47.690;9.130;2023-03-15T15:06:26;10.00;26.10
11908;DHT22;6014;47.690;9.130;2023-03-15T15:08:57;10.20;26.20
11908;DHT22;6014;47.690;9.130;2023-03-15T15:11:26;10.10;25.50
11908;DHT22;6014;47.690;9.130;2023-03-15T15:13:55;9.80;26.30
11908;DHT22;6014;47.690;9.130;2023-03-15T15:16:23;9.70;27.00
11908;DHT22;6014;47.690;9.130;2023-03-15T15:18:51;10.00;27.50
11908;DHT22;6014;47.690;9.130;2023-03-15T15:21:22;9.90;28.00
11908;DHT22;6014;47.690;9.130;2023-03-15T15:23:52;9.60;30.00
11908;DHT22;6014;47.690;9.130;2023-03-15T15:26:26;9.60;30.00
11908;DHT22;6014;47.690;9.130;2023-03-15T15:28:56;9.50;28.10
11908;DHT22;6014;47.690;9.130;2023-03-15T15:31:25;9.40;28.20
11908;DHT22;6014;47.690;9.130;2023-03-15T15:33:55;9.20;28.30
11908;DHT22;6014;47.690;9.130;2023-03-15T15:36:24;9.30;29.40
11908;DHT22;6014;47.690;9.130;2023-03-15T15:38:53;9.40;28.80
11908;DHT22;6014;47.690;9.130;2023-03-15T15:41:23;9.20;28.70
11908;DHT22;6014;47.690;9.130;2023-03-15T15:43:51;9.40;29.10
11908;DHT22;6014;47.690;9.130;2023-03-15T15:46:21;9.50;29.60
11908;DHT22;6014;47.690;9.130;2023-03-15T15:48:49;9.40;29.60
11908;DHT22;6014;47.690;9.130;2023-03-15T15:51:24;9.30;28.80
11908;DHT22;6014;47.690;9.130;2023-03-15T15:53:54;9.20;29.20
11908;DHT22;6014;47.690;9.130;2023-03-15T15:56:28;9.20;29.60
11908;DHT22;6014;47.690;9.130;2023-03-15T15:58:57;9.10;30.00
11908;DHT22;6014;47.690;9.130;2023-03-15T16:01:27;9.00;29.40
11908;DHT22;6014;47.690;9.130;2023-03-15T16:04:00;9.00;29.80
11908;DHT22;6014;47.690;9.130;2023-03-15T16:06:29;9.00;30.00
11908;DHT22;6014;47.690;9.130;2023-03-15T16:08:58;8.90;30.80
11908;DHT22;6014;47.690;9.130;2023-03-15T16:11:26;9.00;30.30
11908;DHT22;6014;47.690;9.130;2023-03-15T16:13:54;9.00;30.80
11908;DHT22;6014;47.690;9.130;2023-03-15T16:16:22;8.90;31.20
11908;DHT22;6014;47.690;9.130;2023-03-15T16:19:01;9.00;31.40
11908;DHT22;6014;47.690;9.130;2023-03-15T16:21:31;8.90;31.30
11908;DHT22;6014;47.690;9.130;2023-03-15T16:24:03;8.90;31.50
11908;DHT22;6014;47.690;9.130;2023-03-15T16:26:34;9.30;32.10
11908;DHT22;6014;47.690;9.130;2023-03-15T16:29:16;9.60;30.80
11908;DHT22;6014;47.690;9.130;2023-03-15T16:31:46;9.90;29.30
11908;DHT22;6014;47.690;9.130;2023-03-15T16:34:16;10.10;28.20